sensor_id;sensor_type;location;lat;lon;timestamp;P1;durP1;ratioP1;P2;durP2;ratioP2
36725;SDS011;44936;52.086;5.150;2022-12-18T00:02:17;28.20;;;6.68;;
36725;SDS011;44936;52.086;5.150;2022-12-18T00:04:42;31.33;;;6.45;;
36725;SDS011;44936;52.086;5.150;2022-12-18T00:07:08;27.05;;;5.45;;
36725;SDS011;44936;52.086;5.150;2022-12-18T00:09:33;29.38;;;6.70;;
36725;SDS011;44936;52.086;5.150;2022-12-18T00:12:02;28.67;;;6.32;;
36725;SDS011;44936;52.086;5.150;2022-12-18T00:14:28;24.98;;;6.78;;
36725;SDS011;44936;52.086;5.150;2022-12-18T00:17:00;30.35;;;6.30;;
36725;SDS011;44936;52.086;5.150;2022-12-18T00:19:27;29.13;;;6.50;;
36725;SDS011;44936;52.086;5.150;2022-12-18T00:21:53;34.70;;;6.43;;
36725;SDS011;44936;52.086;5.150;2022-12-18T00:24:19;35.67;;;7.25;;
36725;SDS011;44936;52.086;5.150;2022-12-18T00:26:44;30.00;;;6.22;;
36725;SDS011;44936;52.086;5.150;2022-12-18T00:29:31;42.00;;;7.35;;
36725;SDS011;44936;52.086;5.150;2022-12-18T00:32:00;33.10;;;7.18;;
36725;SDS011;44936;52.086;5.150;2022-12-18T00:34:33;30.20;;;6.63;;
36725;SDS011;44936;52.086;5.150;2022-12-18T00:37:07;30.00;;;7.18;;
36725;SDS011;44936;52.086;5.150;2022-12-18T00:39:33;31.38;;;7.65;;
36725;SDS011;44936;52.086;5.150;2022-12-18T00:41:59;30.63;;;7.72;;
36725;SDS011;44936;52.086;5.150;2022-12-18T00:44:43;25.52;;;6.10;;
36725;SDS011;44936;52.086;5.150;2022-12-18T00:47:09;33.67;;;6.68;;
36725;SDS011;44936;52.086;5.150;2022-12-18T00:49:34;32.10;;;7.28;;
36725;SDS011;44936;52.086;5.150;2022-12-18T00:52:00;30.10;;;6.20;;
36725;SDS011;44936;52.086;5.150;2022-12-18T00:54:26;34.60;;;8.88;;
36725;SDS011;44936;52.086;5.150;2022-12-18T00:56:52;27.30;;;6.65;;
36725;SDS011;44936;52.086;5.150;2022-12-18T00:59:20;39.67;;;7.38;;
36725;SDS011;44936;52.086;5.150;2022-12-18T01:01:47;24.48;;;6.07;;
36725;SDS011;44936;52.086;5.150;2022-12-18T01:04:13;29.60;;;7.88;;
36725;SDS011;44936;52.086;5.150;2022-12-18T01:06:39;31.40;;;6.22;;
36725;SDS011;44936;52.086;5.150;2022-12-18T01:09:05;34.08;;;7.72;;
36725;SDS011;44936;52.086;5.150;2022-12-18T01:11:34;23.60;;;6.72;;
36725;SDS011;44936;52.086;5.150;2022-12-18T01:13:59;34.78;;;7.72;;
36725;SDS011;44936;52.086;5.150;2022-12-18T01:16:25;32.42;;;6.40;;
36725;SDS011;44936;52.086;5.150;2022-12-18T01:18:52;29.63;;;7.35;;
36725;SDS011;44936;52.086;5.150;2022-12-18T01:21:19;28.67;;;6.63;;
36725;SDS011;44936;52.086;5.150;2022-12-18T01:23:45;39.97;;;7.68;;
36725;SDS011;44936;52.086;5.150;2022-12-18T01:26:12;30.60;;;6.78;;
36725;SDS011;44936;52.086;5.150;2022-12-18T01:28:42;33.53;;;6.90;;
36725;SDS011;44936;52.086;5.150;2022-12-18T01:31:22;26.40;;;6.38;;
36725;SDS011;44936;52.086;5.150;2022-12-18T01:33:52;29.13;;;7.15;;
36725;SDS011;44936;52.086;5.150;2022-12-18T01:36:22;32.13;;;7.20;;
36725;SDS011;44936;52.086;5.150;2022-12-18T01:38:58;33.33;;;7.03;;
36725;SDS011;44936;52.086;5.150;2022-12-18T01:41:26;33.42;;;8.18;;
36725;SDS011;44936;52.086;5.150;2022-12-18T01:50:11;33.95;;;7.28;;
36725;SDS011;44936;52.086;5.150;2022-12-18T01:52:43;29.58;;;6.47;;
36725;SDS011;44936;52.086;5.150;2022-12-18T01:55:32;32.83;;;7.20;;
36725;SDS011;44936;52.086;5.150;2022-12-18T01:58:03;27.33;;;5.97;;
36725;SDS011;44936;52.086;5.150;2022-12-18T02:00:29;37.28;;;6.82;;
36725;SDS011;44936;52.086;5.150;2022-12-18T02:02:55;39.08;;;7.90;;
36725;SDS011;44936;52.086;5.150;2022-12-18T02:05:36;35.83;;;6.03;;
36725;SDS011;44936;52.086;5.150;2022-12-18T02:08:23;32.92;;;7.22;;
36725;SDS011;44936;52.086;5.150;2022-12-18T02:14:04;27.25;;;7.60;;
36725;SDS011;44936;52.086;5.150;2022-12-18T02:25:12;31.40;;;7.13;;
36725;SDS011;44936;52.086;5.150;2022-12-18T02:27:39;37.83;;;6.78;;
36725;SDS011;44936;52.086;5.150;2022-12-18T02:30:06;22.50;;;6.30;;
36725;SDS011;44936;52.086;5.150;2022-12-18T02:32:34;31.70;;;7.13;;
36725;SDS011;44936;52.086;5.150;2022-12-18T02:35:05;25.77;;;5.70;;
36725;SDS011;44936;52.086;5.150;2022-12-18T02:37:34;23.73;;;5.05;;
36725;SDS011;44936;52.086;5.150;2022-12-18T02:40:01;31.67;;;7.25;;
36725;SDS011;44936;52.086;5.150;2022-12-18T02:42:29;33.25;;;7.30;;
36725;SDS011;44936;52.086;5.150;2022-12-18T02:44:54;24.50;;;6.22;;
36725;SDS011;44936;52.086;5.150;2022-12-18T02:47:21;21.73;;;5.78;;
36725;SDS011;44936;52.086;5.150;2022-12-18T02:57:55;30.67;;;6.35;;
36725;SDS011;44936;52.086;5.150;2022-12-18T03:00:28;25.88;;;6.20;;
36725;SDS011;44936;52.086;5.150;2022-12-18T03:03:07;26.20;;;5.68;;
36725;SDS011;44936;52.086;5.150;2022-12-18T03:05:40;29.52;;;7.65;;
36725;SDS011;44936;52.086;5.150;2022-12-18T03:08:25;22.23;;;7.72;;
36725;SDS011;44936;52.086;5.150;2022-12-18T03:10:55;37.40;;;6.82;;
36725;SDS011;44936;52.086;5.150;2022-12-18T03:13:32;21.52;;;6.72;;
36725;SDS011;44936;52.086;5.150;2022-12-18T03:16:01;27.98;;;6.25;;
36725;SDS011;44936;52.086;5.150;2022-12-18T03:18:33;26.17;;;6.43;;
36725;SDS011;44936;52.086;5.150;2022-12-18T03:21:03;28.20;;;6.30;;
36725;SDS011;44936;52.086;5.150;2022-12-18T03:23:33;25.95;;;5.80;;
36725;SDS011;44936;52.086;5.150;2022-12-18T03:26:04;26.42;;;6.13;;
36725;SDS011;44936;52.086;5.150;2022-12-18T03:28:33;31.02;;;6.30;;
36725;SDS011;44936;52.086;5.150;2022-12-18T03:31:03;24.00;;;5.70;;
36725;SDS011;44936;52.086;5.150;2022-12-18T03:34:08;23.35;;;6.35;;
36725;SDS011;44936;52.086;5.150;2022-12-18T03:36:31;23.90;;;6.40;;
36725;SDS011;44936;52.086;5.150;2022-12-18T03:39:00;27.00;;;6.18;;
36725;SDS011;44936;52.086;5.150;2022-12-18T03:41:45;26.33;;;6.13;;
36725;SDS011;44936;52.086;5.150;2022-12-18T03:44:26;25.77;;;6.57;;
36725;SDS011;44936;52.086;5.150;2022-12-18T03:49:25;26.45;;;6.32;;
36725;SDS011;44936;52.086;5.150;2022-12-18T03:52:03;31.23;;;7.07;;
36725;SDS011;44936;52.086;5.150;2022-12-18T03:54:45;27.63;;;6.55;;
36725;SDS011;44936;52.086;5.150;2022-12-18T03:57:16;26.25;;;6.05;;
36725;SDS011;44936;52.086;5.150;2022-12-18T03:59:45;23.17;;;5.95;;
36725;SDS011;44936;52.086;5.150;2022-12-18T04:02:15;25.15;;;6.07;;
36725;SDS011;44936;52.086;5.150;2022-12-18T04:04:44;33.70;;;7.05;;
36725;SDS011;44936;52.086;5.150;2022-12-18T04:07:11;20.48;;;6.40;;
36725;SDS011;44936;52.086;5.150;2022-12-18T04:09:39;24.67;;;6.45;;
36725;SDS011;44936;52.086;5.150;2022-12-18T04:12:09;26.20;;;6.80;;
36725;SDS011;44936;52.086;5.150;2022-12-18T04:14:36;26.55;;;7.47;;
36725;SDS011;44936;52.086;5.150;2022-12-18T04:17:08;21.90;;;6.90;;
36725;SDS011;44936;52.086;5.150;2022-12-18T04:19:33;24.52;;;6.30;;
36725;SDS011;44936;52.086;5.150;2022-12-18T04:21:59;26.58;;;6.05;;
36725;SDS011;44936;52.086;5.150;2022-12-18T04:24:39;31.58;;;7.30;;
36725;SDS011;44936;52.086;5.150;2022-12-18T04:27:04;23.95;;;6.07;;
36725;SDS011;44936;52.086;5.150;2022-12-18T04:29:36;26.98;;;6.00;;
36725;SDS011;44936;52.086;5.150;2022-12-18T04:32:01;22.45;;;5.95;;
36725;SDS011;44936;52.086;5.150;2022-12-18T04:34:32;22.92;;;7.07;;
36725;SDS011;44936;52.086;5.150;2022-12-18T04:36:57;27.08;;;7.47;;
36725;SDS011;44936;52.086;5.150;2022-12-18T04:39:23;26.27;;;6.50;;
36725;SDS011;44936;52.086;5.150;2022-12-18T04:41:49;17.42;;;5.90;;
36725;SDS011;44936;52.086;5.150;2022-12-18T04:44:15;20.27;;;5.45;;
36725;SDS011;44936;52.086;5.150;2022-12-18T04:46:49;18.52;;;6.25;;
36725;SDS011;44936;52.086;5.150;2022-12-18T04:49:27;22.50;;;5.25;;
36725;SDS011;44936;52.086;5.150;2022-12-18T04:51:53;22.98;;;5.28;;
36725;SDS011;44936;52.086;5.150;2022-12-18T04:54:20;25.50;;;5.70;;
36725;SDS011;44936;52.086;5.150;2022-12-18T04:56:54;21.63;;;5.57;;
36725;SDS011;44936;52.086;5.150;2022-12-18T04:59:20;23.55;;;6.97;;
36725;SDS011;44936;52.086;5.150;2022-12-18T05:01:55;25.92;;;6.95;;
36725;SDS011;44936;52.086;5.150;2022-12-18T05:04:23;33.88;;;6.85;;
36725;SDS011;44936;52.086;5.150;2022-12-18T05:06:51;21.58;;;5.05;;
36725;SDS011;44936;52.086;5.150;2022-12-18T05:09:22;16.30;;;4.82;;
36725;SDS011;44936;52.086;5.150;2022-12-18T05:11:48;20.52;;;5.25;;
36725;SDS011;44936;52.086;5.150;2022-12-18T05:14:14;20.05;;;5.50;;
36725;SDS011;44936;52.086;5.150;2022-12-18T05:16:49;17.33;;;4.78;;
36725;SDS011;44936;52.086;5.150;2022-12-18T05:19:35;19.58;;;5.03;;
36725;SDS011;44936;52.086;5.150;2022-12-18T05:22:37;15.35;;;4.47;;
36725;SDS011;44936;52.086;5.150;2022-12-18T05:25:14;20.33;;;5.07;;
36725;SDS011;44936;52.086;5.150;2022-12-18T05:27:45;21.85;;;4.53;;
36725;SDS011;44936;52.086;5.150;2022-12-18T05:39:58;15.88;;;4.07;;
36725;SDS011;44936;52.086;5.150;2022-12-18T05:42:35;11.95;;;4.10;;
36725;SDS011;44936;52.086;5.150;2022-12-18T05:45:53;15.93;;;5.38;;
36725;SDS011;44936;52.086;5.150;2022-12-18T05:52:44;16.17;;;5.15;;
36725;SDS011;44936;52.086;5.150;2022-12-18T06:10:20;14.50;;;3.80;;
36725;SDS011;44936;52.086;5.150;2022-12-18T06:23:09;12.32;;;3.33;;
36725;SDS011;44936;52.086;5.150;2022-12-18T06:25:55;16.98;;;4.45;;
36725;SDS011;44936;52.086;5.150;2022-12-18T06:35:49;12.67;;;3.77;;
36725;SDS011;44936;52.086;5.150;2022-12-18T06:41:35;8.32;;;3.58;;
36725;SDS011;44936;52.086;5.150;2022-12-18T06:44:48;11.57;;;3.83;;
36725;SDS011;44936;52.086;5.150;2022-12-18T06:51:31;12.52;;;3.92;;
36725;SDS011;44936;52.086;5.150;2022-12-18T06:54:35;11.40;;;3.85;;
36725;SDS011;44936;52.086;5.150;2022-12-18T07:33:33;8.82;;;3.47;;
36725;SDS011;44936;52.086;5.150;2022-12-18T07:43:16;11.20;;;3.20;;
36725;SDS011;44936;52.086;5.150;2022-12-18T07:45:49;12.00;;;3.42;;
36725;SDS011;44936;52.086;5.150;2022-12-18T07:49:22;15.52;;;4.90;;
36725;SDS011;44936;52.086;5.150;2022-12-18T07:55:34;7.75;;;3.08;;
36725;SDS011;44936;52.086;5.150;2022-12-18T07:58:38;11.40;;;3.53;;
36725;SDS011;44936;52.086;5.150;2022-12-18T08:05:18;14.48;;;3.80;;
36725;SDS011;44936;52.086;5.150;2022-12-18T08:08:31;6.82;;;2.80;;
36725;SDS011;44936;52.086;5.150;2022-12-18T08:21:42;10.55;;;4.03;;
36725;SDS011;44936;52.086;5.150;2022-12-18T08:24:11;15.45;;;4.05;;
36725;SDS011;44936;52.086;5.150;2022-12-18T08:26:36;14.10;;;3.65;;
36725;SDS011;44936;52.086;5.150;2022-12-18T08:29:05;12.88;;;4.25;;
36725;SDS011;44936;52.086;5.150;2022-12-18T08:31:41;15.55;;;4.47;;
36725;SDS011;44936;52.086;5.150;2022-12-18T08:34:11;13.88;;;4.32;;
36725;SDS011;44936;52.086;5.150;2022-12-18T08:36:39;21.50;;;4.72;;
36725;SDS011;44936;52.086;5.150;2022-12-18T08:39:07;13.13;;;3.95;;
36725;SDS011;44936;52.086;5.150;2022-12-18T08:41:33;9.73;;;4.55;;
36725;SDS011;44936;52.086;5.150;2022-12-18T08:44:01;12.93;;;3.97;;
36725;SDS011;44936;52.086;5.150;2022-12-18T08:46:46;14.05;;;4.53;;
36725;SDS011;44936;52.086;5.150;2022-12-18T08:49:12;14.45;;;4.07;;
36725;SDS011;44936;52.086;5.150;2022-12-18T08:51:38;12.40;;;4.78;;
36725;SDS011;44936;52.086;5.150;2022-12-18T08:54:05;23.55;;;7.10;;
36725;SDS011;44936;52.086;5.150;2022-12-18T08:56:31;20.20;;;5.68;;
36725;SDS011;44936;52.086;5.150;2022-12-18T08:58:58;18.23;;;6.10;;
36725;SDS011;44936;52.086;5.150;2022-12-18T09:01:24;18.40;;;6.45;;
36725;SDS011;44936;52.086;5.150;2022-12-18T09:03:53;16.45;;;5.60;;
36725;SDS011;44936;52.086;5.150;2022-12-18T09:06:19;13.60;;;5.53;;
36725;SDS011;44936;52.086;5.150;2022-12-18T09:08:46;14.45;;;4.50;;
36725;SDS011;44936;52.086;5.150;2022-12-18T09:11:18;12.52;;;4.78;;
36725;SDS011;44936;52.086;5.150;2022-12-18T09:13:52;11.20;;;3.88;;
36725;SDS011;44936;52.086;5.150;2022-12-18T09:16:19;14.80;;;4.93;;
36725;SDS011;44936;52.086;5.150;2022-12-18T09:18:45;13.52;;;4.03;;
36725;SDS011;44936;52.086;5.150;2022-12-18T09:21:13;11.35;;;3.97;;
36725;SDS011;44936;52.086;5.150;2022-12-18T09:23:41;13.48;;;4.07;;
36725;SDS011;44936;52.086;5.150;2022-12-18T09:26:06;15.02;;;5.18;;
36725;SDS011;44936;52.086;5.150;2022-12-18T09:28:32;12.32;;;4.38;;
36725;SDS011;44936;52.086;5.150;2022-12-18T09:30:58;14.45;;;4.80;;
36725;SDS011;44936;52.086;5.150;2022-12-18T09:33:23;11.35;;;3.78;;
36725;SDS011;44936;52.086;5.150;2022-12-18T09:35:49;13.25;;;4.57;;
36725;SDS011;44936;52.086;5.150;2022-12-18T09:38:16;16.10;;;4.80;;
36725;SDS011;44936;52.086;5.150;2022-12-18T09:40:45;14.18;;;4.47;;
36725;SDS011;44936;52.086;5.150;2022-12-18T09:43:24;13.57;;;4.30;;
36725;SDS011;44936;52.086;5.150;2022-12-18T09:45:56;11.48;;;3.90;;
36725;SDS011;44936;52.086;5.150;2022-12-18T09:48:34;12.50;;;4.53;;
36725;SDS011;44936;52.086;5.150;2022-12-18T09:51:15;15.93;;;4.38;;
36725;SDS011;44936;52.086;5.150;2022-12-18T09:53:47;14.55;;;4.47;;
36725;SDS011;44936;52.086;5.150;2022-12-18T09:56:19;15.32;;;4.55;;
36725;SDS011;44936;52.086;5.150;2022-12-18T09:58:53;19.70;;;5.22;;
36725;SDS011;44936;52.086;5.150;2022-12-18T10:01:23;11.73;;;4.32;;
36725;SDS011;44936;52.086;5.150;2022-12-18T10:03:51;12.05;;;3.70;;
36725;SDS011;44936;52.086;5.150;2022-12-18T10:06:20;14.77;;;4.35;;
36725;SDS011;44936;52.086;5.150;2022-12-18T10:11:40;14.02;;;4.60;;
36725;SDS011;44936;52.086;5.150;2022-12-18T10:25:18;12.60;;;4.15;;
36725;SDS011;44936;52.086;5.150;2022-12-18T10:28:12;11.27;;;3.85;;
36725;SDS011;44936;52.086;5.150;2022-12-18T10:30:40;11.63;;;3.75;;
36725;SDS011;44936;52.086;5.150;2022-12-18T10:33:10;11.07;;;4.10;;
36725;SDS011;44936;52.086;5.150;2022-12-18T10:35:41;11.20;;;4.25;;
36725;SDS011;44936;52.086;5.150;2022-12-18T10:40:59;16.80;;;4.93;;
36725;SDS011;44936;52.086;5.150;2022-12-18T10:43:26;12.85;;;3.95;;
36725;SDS011;44936;52.086;5.150;2022-12-18T10:46:08;10.35;;;3.47;;
36725;SDS011;44936;52.086;5.150;2022-12-18T10:48:40;16.70;;;5.07;;
36725;SDS011;44936;52.086;5.150;2022-12-18T10:51:19;12.88;;;4.13;;
36725;SDS011;44936;52.086;5.150;2022-12-18T10:53:52;15.13;;;4.00;;
36725;SDS011;44936;52.086;5.150;2022-12-18T10:59:04;13.05;;;3.92;;
36725;SDS011;44936;52.086;5.150;2022-12-18T11:01:55;15.20;;;3.97;;
36725;SDS011;44936;52.086;5.150;2022-12-18T11:04:29;11.07;;;3.80;;
36725;SDS011;44936;52.086;5.150;2022-12-18T11:07:03;12.55;;;4.10;;
36725;SDS011;44936;52.086;5.150;2022-12-18T11:09:35;16.30;;;4.50;;
36725;SDS011;44936;52.086;5.150;2022-12-18T11:12:02;10.57;;;4.28;;
36725;SDS011;44936;52.086;5.150;2022-12-18T11:14:41;13.80;;;4.45;;
36725;SDS011;44936;52.086;5.150;2022-12-18T11:19:53;13.20;;;3.85;;
36725;SDS011;44936;52.086;5.150;2022-12-18T11:22:26;14.07;;;3.85;;
36725;SDS011;44936;52.086;5.150;2022-12-18T11:24:57;11.35;;;4.10;;
36725;SDS011;44936;52.086;5.150;2022-12-18T11:27:24;16.25;;;4.72;;
36725;SDS011;44936;52.086;5.150;2022-12-18T11:29:50;13.50;;;4.40;;
36725;SDS011;44936;52.086;5.150;2022-12-18T11:33:21;13.52;;;4.63;;
36725;SDS011;44936;52.086;5.150;2022-12-18T11:35:55;10.65;;;4.00;;
36725;SDS011;44936;52.086;5.150;2022-12-18T11:38:31;10.48;;;3.90;;
36725;SDS011;44936;52.086;5.150;2022-12-18T11:43:32;14.27;;;4.38;;
36725;SDS011;44936;52.086;5.150;2022-12-18T11:46:10;15.52;;;4.32;;
36725;SDS011;44936;52.086;5.150;2022-12-18T11:48:45;16.13;;;5.03;;
36725;SDS011;44936;52.086;5.150;2022-12-18T11:51:20;17.67;;;4.97;;
36725;SDS011;44936;52.086;5.150;2022-12-18T11:53:52;13.25;;;4.55;;
36725;SDS011;44936;52.086;5.150;2022-12-18T11:56:32;16.17;;;4.35;;
36725;SDS011;44936;52.086;5.150;2022-12-18T12:01:59;14.13;;;4.63;;
36725;SDS011;44936;52.086;5.150;2022-12-18T12:04:55;10.32;;;3.55;;
36725;SDS011;44936;52.086;5.150;2022-12-18T12:08:11;12.50;;;4.30;;
36725;SDS011;44936;52.086;5.150;2022-12-18T12:11:02;12.07;;;3.83;;
36725;SDS011;44936;52.086;5.150;2022-12-18T12:14:05;16.88;;;4.57;;
36725;SDS011;44936;52.086;5.150;2022-12-18T12:16:50;14.32;;;4.35;;
36725;SDS011;44936;52.086;5.150;2022-12-18T12:19:42;15.10;;;4.40;;
36725;SDS011;44936;52.086;5.150;2022-12-18T12:30:39;17.92;;;4.88;;
36725;SDS011;44936;52.086;5.150;2022-12-18T12:36:25;12.80;;;4.30;;
36725;SDS011;44936;52.086;5.150;2022-12-18T12:39:13;15.07;;;4.22;;
36725;SDS011;44936;52.086;5.150;2022-12-18T12:41:43;18.20;;;5.00;;
36725;SDS011;44936;52.086;5.150;2022-12-18T12:44:40;12.13;;;3.80;;
36725;SDS011;44936;52.086;5.150;2022-12-18T12:47:32;11.27;;;4.50;;
36725;SDS011;44936;52.086;5.150;2022-12-18T12:50:05;15.70;;;4.65;;
36725;SDS011;44936;52.086;5.150;2022-12-18T12:52:42;16.77;;;4.57;;
36725;SDS011;44936;52.086;5.150;2022-12-18T12:55:20;12.35;;;3.72;;
36725;SDS011;44936;52.086;5.150;2022-12-18T13:00:56;13.98;;;4.18;;
36725;SDS011;44936;52.086;5.150;2022-12-18T13:03:35;12.18;;;4.35;;
36725;SDS011;44936;52.086;5.150;2022-12-18T13:06:29;20.80;;;4.57;;
36725;SDS011;44936;52.086;5.150;2022-12-18T13:08:59;15.15;;;4.18;;
36725;SDS011;44936;52.086;5.150;2022-12-18T13:14:26;17.02;;;4.63;;
36725;SDS011;44936;52.086;5.150;2022-12-18T13:19:52;14.18;;;4.15;;
36725;SDS011;44936;52.086;5.150;2022-12-18T13:22:51;15.15;;;3.88;;
36725;SDS011;44936;52.086;5.150;2022-12-18T13:25:29;17.58;;;4.50;;
36725;SDS011;44936;52.086;5.150;2022-12-18T13:28:04;14.50;;;4.18;;
36725;SDS011;44936;52.086;5.150;2022-12-18T13:43:42;13.60;;;4.20;;
36725;SDS011;44936;52.086;5.150;2022-12-18T13:46:19;16.48;;;5.13;;
36725;SDS011;44936;52.086;5.150;2022-12-18T13:51:25;15.35;;;4.63;;
36725;SDS011;44936;52.086;5.150;2022-12-18T13:56:49;15.20;;;4.32;;
36725;SDS011;44936;52.086;5.150;2022-12-18T13:59:17;16.55;;;5.53;;
36725;SDS011;44936;52.086;5.150;2022-12-18T14:01:50;16.23;;;4.65;;
36725;SDS011;44936;52.086;5.150;2022-12-18T14:04:19;17.55;;;4.43;;
36725;SDS011;44936;52.086;5.150;2022-12-18T14:06:52;11.63;;;3.80;;
36725;SDS011;44936;52.086;5.150;2022-12-18T14:09:36;7.20;;;2.88;;
36725;SDS011;44936;52.086;5.150;2022-12-18T14:12:06;15.38;;;4.53;;
36725;SDS011;44936;52.086;5.150;2022-12-18T14:14:56;16.00;;;4.03;;
36725;SDS011;44936;52.086;5.150;2022-12-18T14:17:21;13.82;;;4.20;;
36725;SDS011;44936;52.086;5.150;2022-12-18T14:19:50;13.93;;;4.25;;
36725;SDS011;44936;52.086;5.150;2022-12-18T14:22:18;12.35;;;4.35;;
36725;SDS011;44936;52.086;5.150;2022-12-18T14:24:47;16.95;;;4.95;;
36725;SDS011;44936;52.086;5.150;2022-12-18T14:27:30;15.90;;;4.70;;
36725;SDS011;44936;52.086;5.150;2022-12-18T14:30:15;13.50;;;4.30;;
36725;SDS011;44936;52.086;5.150;2022-12-18T14:35:31;13.80;;;4.23;;
36725;SDS011;44936;52.086;5.150;2022-12-18T14:38:11;14.50;;;4.65;;
36725;SDS011;44936;52.086;5.150;2022-12-18T14:40:47;14.13;;;5.07;;
36725;SDS011;44936;52.086;5.150;2022-12-18T14:43:23;17.70;;;4.68;;
36725;SDS011;44936;52.086;5.150;2022-12-18T14:45:49;14.18;;;4.53;;
36725;SDS011;44936;52.086;5.150;2022-12-18T14:53:57;17.92;;;5.40;;
36725;SDS011;44936;52.086;5.150;2022-12-18T14:56:35;14.63;;;4.32;;
36725;SDS011;44936;52.086;5.150;2022-12-18T14:59:18;12.98;;;4.40;;
36725;SDS011;44936;52.086;5.150;2022-12-18T15:04:29;16.70;;;4.90;;
36725;SDS011;44936;52.086;5.150;2022-12-18T15:10:02;14.07;;;4.40;;
36725;SDS011;44936;52.086;5.150;2022-12-18T15:18:03;16.70;;;4.50;;
36725;SDS011;44936;52.086;5.150;2022-12-18T15:20:49;15.40;;;4.60;;
36725;SDS011;44936;52.086;5.150;2022-12-18T15:26:02;17.67;;;5.72;;
36725;SDS011;44936;52.086;5.150;2022-12-18T15:28:32;15.38;;;4.43;;
36725;SDS011;44936;52.086;5.150;2022-12-18T15:31:06;17.70;;;4.78;;
36725;SDS011;44936;52.086;5.150;2022-12-18T15:36:19;15.50;;;4.88;;
36725;SDS011;44936;52.086;5.150;2022-12-18T15:38:56;14.80;;;4.78;;
36725;SDS011;44936;52.086;5.150;2022-12-18T15:41:23;15.13;;;4.90;;
36725;SDS011;44936;52.086;5.150;2022-12-18T15:43:50;18.65;;;4.78;;
36725;SDS011;44936;52.086;5.150;2022-12-18T15:46:23;15.40;;;5.05;;
36725;SDS011;44936;52.086;5.150;2022-12-18T15:51:23;14.68;;;4.72;;
36725;SDS011;44936;52.086;5.150;2022-12-18T15:54:23;16.63;;;4.63;;
36725;SDS011;44936;52.086;5.150;2022-12-18T15:57:10;17.55;;;5.57;;
36725;SDS011;44936;52.086;5.150;2022-12-18T15:59:49;16.05;;;5.03;;
36725;SDS011;44936;52.086;5.150;2022-12-18T16:02:18;15.65;;;4.35;;
36725;SDS011;44936;52.086;5.150;2022-12-18T16:04:45;18.98;;;4.97;;
36725;SDS011;44936;52.086;5.150;2022-12-18T16:07:13;16.95;;;4.97;;
36725;SDS011;44936;52.086;5.150;2022-12-18T16:09:39;15.00;;;4.80;;
36725;SDS011;44936;52.086;5.150;2022-12-18T16:12:06;15.63;;;5.93;;
36725;SDS011;44936;52.086;5.150;2022-12-18T16:14:39;15.65;;;5.50;;
36725;SDS011;44936;52.086;5.150;2022-12-18T16:17:09;15.65;;;4.57;;
36725;SDS011;44936;52.086;5.150;2022-12-18T16:19:35;19.38;;;5.78;;
36725;SDS011;44936;52.086;5.150;2022-12-18T16:22:01;21.10;;;5.80;;
36725;SDS011;44936;52.086;5.150;2022-12-18T16:24:32;19.58;;;6.18;;
36725;SDS011;44936;52.086;5.150;2022-12-18T16:27:01;16.50;;;5.30;;
36725;SDS011;44936;52.086;5.150;2022-12-18T16:29:28;15.88;;;4.95;;
36725;SDS011;44936;52.086;5.150;2022-12-18T16:31:54;20.25;;;5.93;;
36725;SDS011;44936;52.086;5.150;2022-12-18T16:34:28;24.17;;;5.20;;
36725;SDS011;44936;52.086;5.150;2022-12-18T16:36:59;17.30;;;5.25;;
36725;SDS011;44936;52.086;5.150;2022-12-18T16:39:32;19.50;;;4.35;;
36725;SDS011;44936;52.086;5.150;2022-12-18T16:41:59;16.42;;;5.10;;
36725;SDS011;44936;52.086;5.150;2022-12-18T16:44:25;17.50;;;5.18;;
36725;SDS011;44936;52.086;5.150;2022-12-18T16:46:51;22.25;;;5.47;;
36725;SDS011;44936;52.086;5.150;2022-12-18T16:49:18;15.75;;;5.32;;
36725;SDS011;44936;52.086;5.150;2022-12-18T16:51:47;15.25;;;4.93;;
36725;SDS011;44936;52.086;5.150;2022-12-18T16:54:14;16.55;;;5.00;;
36725;SDS011;44936;52.086;5.150;2022-12-18T16:56:39;14.90;;;4.93;;
36725;SDS011;44936;52.086;5.150;2022-12-18T16:59:11;17.17;;;5.32;;
36725;SDS011;44936;52.086;5.150;2022-12-18T17:01:40;16.83;;;5.35;;
36725;SDS011;44936;52.086;5.150;2022-12-18T17:04:07;16.08;;;5.18;;
36725;SDS011;44936;52.086;5.150;2022-12-18T17:06:35;19.75;;;5.70;;
36725;SDS011;44936;52.086;5.150;2022-12-18T17:09:06;14.63;;;4.53;;
36725;SDS011;44936;52.086;5.150;2022-12-18T17:11:56;22.00;;;6.30;;
36725;SDS011;44936;52.086;5.150;2022-12-18T17:14:24;19.45;;;5.47;;
36725;SDS011;44936;52.086;5.150;2022-12-18T17:16:50;20.38;;;5.78;;
36725;SDS011;44936;52.086;5.150;2022-12-18T17:19:17;15.90;;;4.55;;
36725;SDS011;44936;52.086;5.150;2022-12-18T17:21:44;18.42;;;6.03;;
36725;SDS011;44936;52.086;5.150;2022-12-18T17:24:17;17.05;;;5.10;;
36725;SDS011;44936;52.086;5.150;2022-12-18T17:26:51;20.40;;;5.65;;
36725;SDS011;44936;52.086;5.150;2022-12-18T17:29:17;15.73;;;4.60;;
36725;SDS011;44936;52.086;5.150;2022-12-18T17:31:49;16.65;;;5.18;;
36725;SDS011;44936;52.086;5.150;2022-12-18T17:34:15;25.10;;;5.85;;
36725;SDS011;44936;52.086;5.150;2022-12-18T17:36:45;18.30;;;5.40;;
36725;SDS011;44936;52.086;5.150;2022-12-18T17:39:15;14.50;;;5.38;;
36725;SDS011;44936;52.086;5.150;2022-12-18T17:42:08;16.48;;;5.53;;
36725;SDS011;44936;52.086;5.150;2022-12-18T17:44:38;17.35;;;5.50;;
36725;SDS011;44936;52.086;5.150;2022-12-18T17:47:06;21.75;;;5.43;;
36725;SDS011;44936;52.086;5.150;2022-12-18T17:49:47;15.43;;;6.18;;
36725;SDS011;44936;52.086;5.150;2022-12-18T17:52:12;17.88;;;4.95;;
36725;SDS011;44936;52.086;5.150;2022-12-18T17:54:40;18.67;;;5.47;;
36725;SDS011;44936;52.086;5.150;2022-12-18T17:57:12;21.25;;;6.03;;
36725;SDS011;44936;52.086;5.150;2022-12-18T17:59:37;16.55;;;5.25;;
36725;SDS011;44936;52.086;5.150;2022-12-18T18:02:09;19.73;;;5.72;;
36725;SDS011;44936;52.086;5.150;2022-12-18T18:04:35;19.55;;;5.28;;
36725;SDS011;44936;52.086;5.150;2022-12-18T18:07:03;13.57;;;4.68;;
36725;SDS011;44936;52.086;5.150;2022-12-18T18:09:32;23.23;;;5.25;;
36725;SDS011;44936;52.086;5.150;2022-12-18T18:11:58;21.42;;;6.28;;
36725;SDS011;44936;52.086;5.150;2022-12-18T18:14:42;18.05;;;5.55;;
36725;SDS011;44936;52.086;5.150;2022-12-18T18:17:07;15.68;;;5.22;;
36725;SDS011;44936;52.086;5.150;2022-12-18T18:19:33;17.05;;;6.10;;
36725;SDS011;44936;52.086;5.150;2022-12-18T18:21:58;20.15;;;5.50;;
36725;SDS011;44936;52.086;5.150;2022-12-18T18:24:25;18.60;;;5.57;;
36725;SDS011;44936;52.086;5.150;2022-12-18T18:26:51;15.63;;;5.38;;
36725;SDS011;44936;52.086;5.150;2022-12-18T18:29:18;25.42;;;6.20;;
36725;SDS011;44936;52.086;5.150;2022-12-18T18:31:48;16.65;;;5.68;;
36725;SDS011;44936;52.086;5.150;2022-12-18T18:34:17;14.73;;;5.28;;
36725;SDS011;44936;52.086;5.150;2022-12-18T18:36:46;15.00;;;5.38;;
36725;SDS011;44936;52.086;5.150;2022-12-18T18:39:12;18.52;;;6.13;;
36725;SDS011;44936;52.086;5.150;2022-12-18T18:41:58;20.65;;;5.80;;
36725;SDS011;44936;52.086;5.150;2022-12-18T18:44:26;18.85;;;5.47;;
36725;SDS011;44936;52.086;5.150;2022-12-18T18:46:55;17.00;;;5.20;;
36725;SDS011;44936;52.086;5.150;2022-12-18T18:49:37;19.27;;;5.65;;
36725;SDS011;44936;52.086;5.150;2022-12-18T18:52:03;20.33;;;5.47;;
36725;SDS011;44936;52.086;5.150;2022-12-18T18:54:31;21.25;;;5.88;;
36725;SDS011;44936;52.086;5.150;2022-12-18T18:56:56;18.77;;;6.03;;
36725;SDS011;44936;52.086;5.150;2022-12-18T18:59:22;18.80;;;5.43;;
36725;SDS011;44936;52.086;5.150;2022-12-18T19:01:48;14.98;;;5.50;;
36725;SDS011;44936;52.086;5.150;2022-12-18T19:04:16;18.23;;;5.47;;
36725;SDS011;44936;52.086;5.150;2022-12-18T19:06:42;17.45;;;4.95;;
36725;SDS011;44936;52.086;5.150;2022-12-18T19:09:11;20.95;;;5.97;;